createdAt,value
2023-05-02T00:00:11.481Z,79.10
2023-05-02T00:04:49.302Z,79.11
2023-05-02T00:09:06.867Z,79.05
2023-05-02T00:13:24.671Z,78.82
2023-05-02T00:17:43.731Z,78.97
2023-05-02T00:22:01.449Z,78.92
2023-05-02T00:26:19.078Z,79.18
2023-05-02T00:30:38.915Z,79.23
2023-05-02T00:34:56.542Z,78.92
2023-05-02T00:39:14.404Z,79.11
2023-05-02T00:43:31.718Z,79.59
2023-05-02T00:47:50.906Z,79.58
2023-05-02T00:52:09.582Z,79.54
2023-05-02T00:56:27.610Z,79.66
2023-05-02T01:01:12.663Z,79.46
2023-05-02T01:05:57.365Z,79.66
2023-05-02T01:10:29.053Z,79.58
2023-05-02T01:14:55.526Z,80.06
2023-05-02T01:19:25.471Z,80.54
2023-05-02T01:24:32.956Z,80.93
2023-05-02T01:29:07.150Z,81.09
2023-05-02T01:33:27.301Z,81.30
2023-05-02T01:37:47.120Z,81.49
2023-05-02T01:42:05.533Z,81.77
2023-05-02T01:46:30.680Z,81.86
2023-05-02T01:50:50.593Z,82.09
2023-05-02T01:55:12.454Z,82.04
2023-05-02T01:59:31.338Z,82.11
2023-05-02T02:03:49.348Z,82.39
2023-05-02T02:08:07.085Z,82.43
2023-05-02T02:12:38.960Z,82.61
2023-05-02T02:17:02.060Z,82.85
2023-05-02T02:21:21.914Z,83.20
2023-05-02T02:25:40.512Z,83.27
2023-05-02T02:29:58.493Z,83.63
2023-05-02T02:34:16.434Z,83.51
2023-05-02T02:39:05.782Z,83.52
2023-05-02T02:43:55.828Z,83.43
2023-05-02T02:48:38.883Z,83.60
2023-05-02T02:53:05.368Z,83.79
2023-05-02T02:57:55.595Z,83.80
2023-05-02T03:02:17.506Z,83.78
2023-05-02T03:06:35.866Z,83.77
2023-05-02T03:10:53.574Z,83.84
2023-05-02T03:15:42.184Z,83.81
2023-05-02T03:19:59.958Z,83.77
2023-05-02T03:24:19.141Z,83.86
2023-05-02T03:28:37.061Z,84.08
2023-05-02T03:32:54.794Z,84.05
2023-05-02T03:37:12.346Z,83.90
2023-05-02T03:41:30.069Z,83.94
2023-05-02T03:45:48.734Z,83.87
2023-05-02T03:50:07.906Z,83.58
2023-05-02T03:54:26.265Z,83.17
2023-05-02T03:58:44.066Z,82.71
2023-05-02T04:03:02.855Z,82.40
2023-05-02T04:07:20.614Z,81.92
2023-05-02T04:11:38.174Z,81.76
2023-05-02T04:15:56.389Z,81.52
2023-05-02T04:20:14.014Z,80.64
2023-05-02T04:24:31.689Z,79.21
2023-05-02T04:28:49.247Z,78.30
2023-05-02T04:33:06.468Z,78.20
2023-05-02T04:37:24.134Z,76.99
2023-05-02T04:41:43.472Z,75.97
2023-05-02T04:46:01.238Z,74.68
2023-05-02T04:50:19.147Z,74.78
2023-05-02T04:54:36.952Z,76.22
2023-05-02T04:58:54.800Z,73.76
2023-05-02T05:03:12.398Z,73.47
2023-05-02T05:07:30.159Z,71.86
2023-05-02T05:11:47.713Z,71.31
2023-05-02T05:16:06.018Z,70.10
2023-05-02T05:20:23.478Z,71.48
2023-05-02T05:24:41.166Z,66.62
2023-05-02T05:28:58.699Z,63.22
2023-05-02T05:33:16.917Z,58.92
2023-05-02T05:37:34.770Z,57.24
2023-05-02T05:41:54.870Z,57.28
2023-05-02T05:46:12.392Z,55.46
2023-05-02T05:50:30.089Z,51.31
2023-05-02T05:54:47.796Z,51.01
2023-05-02T05:59:05.744Z,49.26
2023-05-02T06:03:23.514Z,50.82
2023-05-02T06:07:41.460Z,49.74
2023-05-02T06:11:59.084Z,49.07
2023-05-02T06:16:18.520Z,49.94
2023-05-02T06:20:37.395Z,49.82
2023-05-02T06:24:55.111Z,48.50
2023-05-02T06:29:12.406Z,47.65
2023-05-02T06:33:31.212Z,46.56
2023-05-02T06:37:48.794Z,46.17
2023-05-02T06:42:06.508Z,45.83
2023-05-02T06:46:23.633Z,45.06
2023-05-02T06:50:41.636Z,42.53
2023-05-02T06:54:59.496Z,42.10
2023-05-02T06:59:17.354Z,41.83
2023-05-02T07:03:34.997Z,41.85
2023-05-02T07:07:52.655Z,42.07
2023-05-02T07:12:10.208Z,41.93
2023-05-02T07:16:28.694Z,42.82
2023-05-02T07:20:46.677Z,42.24
2023-05-02T07:25:04.889Z,42.99
2023-05-02T07:29:22.462Z,42.96
2023-05-02T07:33:40.533Z,41.84
2023-05-02T07:37:58.127Z,41.81
2023-05-02T07:42:15.882Z,42.00
2023-05-02T07:46:33.527Z,41.82
2023-05-02T07:50:51.266Z,41.90
2023-05-02T07:55:09.770Z,41.93
2023-05-02T07:59:31.794Z,40.98
2023-05-02T08:03:50.325Z,41.31
2023-05-02T08:08:08.223Z,41.40
2023-05-02T08:12:26.054Z,43.05
2023-05-02T08:16:45.591Z,42.70
2023-05-02T08:21:04.583Z,43.16
2023-05-02T08:25:22.117Z,43.58
2023-05-02T08:29:39.847Z,43.26
2023-05-02T08:33:57.429Z,40.82
2023-05-02T08:38:14.980Z,40.54
2023-05-02T08:42:34.719Z,41.57
2023-05-02T08:46:54.278Z,40.66
2023-05-02T08:51:15.565Z,39.26
2023-05-02T08:55:36.834Z,40.52
2023-05-02T08:59:54.437Z,39.20
2023-05-02T09:04:12.452Z,39.10
2023-05-02T09:08:29.871Z,39.77
2023-05-02T09:12:47.762Z,38.94
2023-05-02T09:17:05.696Z,37.79
2023-05-02T09:21:35.081Z,37.42
2023-05-02T09:25:52.690Z,35.75
2023-05-02T09:30:25.137Z,38.26
2023-05-02T09:35:06.864Z,37.01
2023-05-02T09:39:29.661Z,36.74
2023-05-02T09:43:59.891Z,38.33
2023-05-02T09:48:17.606Z,39.10
2023-05-02T09:52:35.413Z,38.89
2023-05-02T09:56:58.110Z,38.29
2023-05-02T10:01:19.648Z,39.72
2023-05-02T10:05:39.793Z,35.96
2023-05-02T10:10:01.346Z,35.90
2023-05-02T10:14:22.847Z,35.40
2023-05-02T10:18:53.049Z,31.89
2023-05-02T10:23:11.574Z,31.65
2023-05-02T10:27:33.352Z,34.12
2023-05-02T10:31:51.839Z,34.79
2023-05-02T10:36:14.998Z,36.16
2023-05-02T10:40:33.065Z,37.61
2023-05-02T10:44:51.505Z,37.73
2023-05-02T10:49:12.138Z,35.77
2023-05-02T10:53:36.640Z,35.55
2023-05-02T10:57:58.044Z,35.63
2023-05-02T11:02:23.736Z,30.56
2023-05-02T11:06:59.807Z,32.22
2023-05-02T11:11:43.880Z,36.35
2023-05-02T11:16:01.934Z,39.60
2023-05-02T11:20:20.699Z,40.15
2023-05-02T11:24:43.292Z,39.70
2023-05-02T11:29:00.869Z,38.52
2023-05-02T11:33:20.545Z,35.30
2023-05-02T11:37:38.226Z,37.41
2023-05-02T11:41:56.000Z,35.73
2023-05-02T11:46:13.588Z,37.63
2023-05-02T11:50:31.481Z,39.92
2023-05-02T11:54:50.675Z,40.46
2023-05-02T11:59:09.224Z,39.72
2023-05-02T12:03:32.505Z,39.65
2023-05-02T12:07:50.488Z,40.70
2023-05-02T12:12:07.989Z,39.35
2023-05-02T12:16:26.125Z,39.48
2023-05-02T12:20:44.145Z,39.39
2023-05-02T12:25:04.768Z,38.23
2023-05-02T12:29:22.696Z,38.92
2023-05-02T12:33:44.334Z,40.95
2023-05-02T12:38:16.236Z,41.26
2023-05-02T12:42:35.004Z,41.72
2023-05-02T12:47:01.715Z,44.63
2023-05-02T12:51:24.731Z,45.56
2023-05-02T12:55:42.568Z,43.94
2023-05-02T13:00:00.549Z,43.65
2023-05-02T13:04:18.298Z,45.09
2023-05-02T13:08:36.689Z,41.70
2023-05-02T13:12:55.164Z,42.06
2023-05-02T13:17:13.406Z,42.25
2023-05-02T13:21:31.847Z,44.00
2023-05-02T13:25:49.647Z,44.37
2023-05-02T13:30:09.461Z,44.16
2023-05-02T13:34:27.820Z,42.77
2023-05-02T13:38:45.631Z,42.58
2023-05-02T13:43:03.172Z,42.11
2023-05-02T13:47:21.783Z,40.95
2023-05-02T13:51:39.837Z,42.57
2023-05-02T13:55:57.374Z,42.94
2023-05-02T14:00:16.716Z,42.77
2023-05-02T14:04:34.434Z,42.38
2023-05-02T14:08:52.210Z,40.61
2023-05-02T14:13:09.829Z,39.93
2023-05-02T14:17:27.624Z,36.16
2023-05-02T14:21:45.142Z,36.80
2023-05-02T14:26:03.007Z,39.71
2023-05-02T14:30:20.515Z,38.90
2023-05-02T14:34:39.704Z,41.10
2023-05-02T14:38:57.658Z,39.26
2023-05-02T14:43:15.333Z,39.13
2023-05-02T14:47:33.096Z,41.16
2023-05-02T14:51:51.171Z,40.98
2023-05-02T14:56:14.428Z,40.08
2023-05-02T15:00:35.232Z,38.75
2023-05-02T15:04:53.067Z,38.51
2023-05-02T15:09:11.336Z,40.92
2023-05-02T15:13:29.012Z,41.10
2023-05-02T15:17:46.607Z,41.83
2023-05-02T15:22:04.395Z,42.08
2023-05-02T15:26:23.362Z,42.96
2023-05-02T15:30:41.298Z,42.59
2023-05-02T15:34:58.796Z,44.31
2023-05-02T15:39:16.484Z,43.90
2023-05-02T15:43:34.195Z,44.79
2023-05-02T15:47:52.675Z,46.46
2023-05-02T15:52:10.205Z,46.83
2023-05-02T15:56:27.917Z,47.48
2023-05-02T16:00:47.306Z,46.67
2023-05-02T16:05:07.749Z,47.77
2023-05-02T16:09:25.415Z,46.89
2023-05-02T16:13:43.223Z,47.69
2023-05-02T16:18:00.851Z,48.50
2023-05-02T16:22:18.531Z,48.74
2023-05-02T16:26:36.217Z,50.12
2023-05-02T16:30:54.296Z,51.01
2023-05-02T16:35:13.414Z,54.03
2023-05-02T16:39:31.649Z,55.10
2023-05-02T16:43:50.232Z,57.19
2023-05-02T16:48:08.337Z,58.83
2023-05-02T16:52:26.836Z,62.44
2023-05-02T16:56:44.678Z,62.53
2023-05-02T17:01:05.560Z,65.48
2023-05-02T17:05:23.417Z,67.38
2023-05-02T17:09:42.349Z,68.87
2023-05-02T17:14:01.442Z,70.53
2023-05-02T17:18:19.324Z,70.73
2023-05-02T17:22:38.549Z,70.57
2023-05-02T17:26:56.157Z,70.91
2023-05-02T17:31:14.087Z,71.43
2023-05-02T17:35:31.952Z,71.94
2023-05-02T17:39:50.436Z,72.60
2023-05-02T17:44:08.037Z,73.27
2023-05-02T17:48:25.971Z,73.71
2023-05-02T17:52:43.011Z,73.47
2023-05-02T17:57:00.873Z,75.05
2023-05-02T18:01:18.579Z,75.27
2023-05-02T18:05:40.528Z,77.56
2023-05-02T18:09:57.976Z,79.35
2023-05-02T18:14:15.613Z,79.15
2023-05-02T18:18:35.352Z,79.28
2023-05-02T18:22:52.932Z,80.18
2023-05-02T18:27:10.778Z,79.96
2023-05-02T18:31:28.471Z,80.83
2023-05-02T18:35:47.859Z,81.43
2023-05-02T18:40:05.964Z,82.16
2023-05-02T18:44:23.603Z,82.82
2023-05-02T18:48:41.167Z,83.15
2023-05-02T18:52:58.958Z,83.58
2023-05-02T18:57:16.940Z,84.03
2023-05-02T19:01:34.805Z,84.58
2023-05-02T19:05:57.099Z,84.75
2023-05-02T19:10:15.127Z,84.75
2023-05-02T19:14:33.668Z,84.97
2023-05-02T19:18:53.636Z,85.54
2023-05-02T19:23:19.022Z,85.85
2023-05-02T19:27:38.484Z,85.83
2023-05-02T19:31:57.100Z,85.90
2023-05-02T19:36:15.371Z,85.88
2023-05-02T19:40:33.033Z,85.91
2023-05-02T19:44:50.897Z,86.02
2023-05-02T19:49:08.486Z,86.01
2023-05-02T19:53:26.189Z,86.21
2023-05-02T19:57:44.816Z,86.19
2023-05-02T20:02:02.855Z,86.30
2023-05-02T20:06:20.679Z,86.40
2023-05-02T20:10:38.560Z,86.54
2023-05-02T20:14:58.175Z,86.63
2023-05-02T20:19:21.332Z,86.74
2023-05-02T20:23:43.614Z,86.99
2023-05-02T20:28:01.578Z,87.03
2023-05-02T20:32:19.281Z,87.14
2023-05-02T20:36:37.044Z,86.47
2023-05-02T20:40:54.966Z,86.57
2023-05-02T20:45:14.252Z,86.57
2023-05-02T20:49:32.587Z,86.27
2023-05-02T20:53:50.394Z,86.11
2023-05-02T20:58:07.463Z,86.04
2023-05-02T21:02:29.082Z,86.01
2023-05-02T21:06:47.301Z,86.07
2023-05-02T21:11:15.273Z,86.43
2023-05-02T21:15:35.902Z,86.97
2023-05-02T21:19:56.255Z,87.16
2023-05-02T21:24:13.912Z,87.38
2023-05-02T21:28:32.127Z,87.73
2023-05-02T21:32:49.608Z,87.95
2023-05-02T21:37:08.416Z,88.02
2023-05-02T21:41:26.094Z,88.09
2023-05-02T21:45:48.875Z,88.32
2023-05-02T21:50:07.100Z,88.42
2023-05-02T21:54:25.083Z,88.60
2023-05-02T21:58:42.696Z,88.76
2023-05-02T22:03:06.471Z,88.98
2023-05-02T22:07:25.276Z,89.08
2023-05-02T22:11:43.585Z,89.40
2023-05-02T22:16:01.203Z,89.43
2023-05-02T22:20:18.927Z,89.40
2023-05-02T22:24:36.506Z,89.58
2023-05-02T22:28:54.234Z,89.65
2023-05-02T22:33:12.437Z,89.74
2023-05-02T22:37:30.940Z,89.89
2023-05-02T22:41:48.546Z,89.87
2023-05-02T22:46:06.480Z,89.74
2023-05-02T22:50:24.798Z,89.47
2023-05-02T22:54:42.606Z,89.34
2023-05-02T22:59:00.240Z,89.31
2023-05-02T23:03:18.379Z,89.33
2023-05-02T23:07:36.088Z,89.33
2023-05-02T23:11:53.892Z,89.26
2023-05-02T23:16:11.610Z,89.13
2023-05-02T23:20:29.531Z,89.24
2023-05-02T23:24:47.997Z,89.32
2023-05-02T23:29:06.719Z,89.14
2023-05-02T23:33:26.190Z,89.02
2023-05-02T23:37:45.735Z,89.07
2023-05-02T23:42:03.905Z,89.07
2023-05-02T23:46:21.729Z,89.06
2023-05-02T23:50:39.495Z,89.02
2023-05-02T23:54:57.144Z,88.92
2023-05-02T23:59:15.268Z,88.90
